Time;durP1;ratioP1;P1;durP2;ratioP2;P2;SDS_P1;SDS_P2;PMS_P1;PMS_P2;Temp;Humidity;BMP_temperature;BMP_pressure;BME280_temperature;BME280_humidity;BME280_pressure;Samples;Min_cycle;Max_cycle;Signal;HPM_P1;HPM_P2
2021/03/22 00:00:12;;;;;;;37.80;23.83;;;102.60;1817.60;;;;;;4823253;29;20106;-73
2021/03/22 00:02:38;;;;;;;34.90;22.75;;;102.50;1817.60;;;;;;4823849;29;20030;-73
2021/03/22 00:05:05;;;;;;;39.17;23.45;;;102.50;1817.60;;;;;;4833869;29;20033;-73
2021/03/22 00:07:31;;;;;;;34.35;23.30;;;102.40;1817.60;;;;;;4828188;29;20074;-73
2021/03/22 00:09:58;;;;;;;40.63;24.55;;;102.40;1817.60;;;;;;4832848;29;20030;-73
2021/03/22 00:12:24;;;;;;;36.13;22.50;;;77.70;1843.20;;;;;;4836256;29;20046;-73
2021/03/22 00:14:49;;;;;;;34.53;22.45;;;77.70;1843.20;;;;;;4834613;29;20037;-73
2021/03/22 00:17:15;;;;;;;33.90;21.40;;;77.60;1817.60;;;;;;4836572;29;20033;-74
2021/03/22 00:19:41;;;;;;;31.90;21.58;;;77.60;1817.60;;;;;;4833681;29;20480;-74
2021/03/22 00:22:06;;;;;;;31.25;21.42;;;77.50;1817.60;;;;;;4821022;29;20448;-74
2021/03/22 00:24:32;;;;;;;33.83;22.80;;;77.40;1817.60;;;;;;4834336;29;20030;-74
2021/03/22 00:26:58;;;;;;;27.80;20.33;;;77.40;1817.60;;;;;;4836608;29;20026;-74
2021/03/22 00:29:23;;;;;;;33.53;20.85;;;77.40;1792.00;;;;;;4817271;29;20049;-73
2021/03/22 00:31:49;;;;;;;35.80;21.85;;;77.30;1817.60;;;;;;4833618;29;20058;-73
2021/03/22 00:34:15;;;;;;;34.08;21.17;;;77.30;1817.60;;;;;;4832856;29;20045;-74
2021/03/22 00:36:40;;;;;;;36.50;20.13;;;77.20;1817.60;;;;;;4832187;29;20050;-74
2021/03/22 00:39:06;;;;;;;33.95;21.25;;;77.10;1817.60;;;;;;4834521;29;20039;-74
2021/03/22 00:41:32;;;;;;;34.53;20.48;;;77.00;1817.60;;;;;;4836221;29;20045;-74
2021/03/22 00:43:58;;;;;;;33.63;21.58;;;77.00;1817.60;;;;;;4820437;29;20434;-73
2021/03/22 00:46:24;;;;;;;32.45;19.73;;;76.80;1817.60;;;;;;4831276;29;20078;-74
2021/03/22 00:48:49;;;;;;;31.25;19.67;;;76.80;1843.20;;;;;;4832079;29;20388;-74
2021/03/22 00:51:15;;;;;;;31.52;19.70;;;52.10;1843.20;;;;;;4834468;29;20448;-74
2021/03/22 00:53:41;;;;;;;33.28;18.15;;;52.00;1868.80;;;;;;4832982;29;20022;-74
2021/03/22 00:56:06;;;;;;;27.88;19.30;;;51.90;1868.80;;;;;;4834704;29;20034;-74
2021/03/22 00:58:33;;;;;;;31.20;16.85;;;51.70;1894.40;;;;;;4835136;29;20037;-75
2021/03/22 01:01:00;;;;;;;26.20;16.83;;;51.90;1894.40;;;;;;4816915;29;20038;-74
2021/03/22 01:03:29;;;;;;;25.10;16.13;;;51.50;1920.00;;;;;;4833781;29;20034;-74
2021/03/22 01:05:56;;;;;;;24.40;16.40;;;51.40;1920.00;;;;;;4833661;29;20128;-73
2021/03/22 01:08:24;;;;;;;31.02;17.50;;;51.40;1945.60;;;;;;4833787;29;20105;-75
2021/03/22 01:10:55;;;;;;;24.95;15.05;;;51.30;1945.60;;;;;;4834144;29;20091;-74
2021/03/22 01:13:29;;;;;;;24.60;16.15;;;51.20;1945.60;;;;;;4817417;29;20050;-73
2021/03/22 01:15:55;;;;;;;28.08;16.20;;;51.20;1945.60;;;;;;4832242;29;20026;-74
2021/03/22 01:18:24;;;;;;;25.63;16.75;;;26.50;1945.60;;;;;;4841472;29;20395;-74
2021/03/22 01:21:01;;;;;;;26.70;16.73;;;26.40;1945.60;;;;;;4841456;29;20094;-74
2021/03/22 01:23:27;;;;;;;27.42;16.38;;;26.40;1971.20;;;;;;4841235;29;20041;-74
2021/03/22 01:25:53;;;;;;;30.05;17.42;;;26.30;1971.20;;;;;;4840372;29;20030;-74
2021/03/22 01:28:19;;;;;;;28.80;17.73;;;26.30;1971.20;;;;;;4841269;29;20058;-74
2021/03/22 01:30:50;;;;;;;31.75;17.90;;;26.30;1971.20;;;;;;4841385;29;20021;-75
2021/03/22 01:33:19;;;;;;;26.65;17.30;;;26.30;1971.20;;;;;;4844018;29;20457;-74
2021/03/22 01:35:45;;;;;;;29.95;18.48;;;26.20;1996.80;;;;;;4841874;29;20038;-75
2021/03/22 01:38:11;;;;;;;25.40;17.05;;;26.20;1996.80;;;;;;4846023;29;20368;-75
2021/03/22 01:40:53;;;;;;;31.45;18.42;;;26.20;2022.40;;;;;;4828767;29;20038;-74
2021/03/22 01:43:37;;;;;;;31.90;18.98;;;26.20;2022.40;;;;;;4829202;29;20140;-75
2021/03/22 01:46:05;;;;;;;27.83;17.63;;;26.10;2022.40;;;;;;4845397;29;20433;-74
2021/03/22 01:48:30;;;;;;;26.48;18.15;;;26.10;2048.00;;;;;;4845289;29;20030;-75
2021/03/22 01:50:56;;;;;;;30.67;17.95;;;26.10;2048.00;;;;;;4845596;29;20094;-75
2021/03/22 01:53:22;;;;;;;32.75;18.65;;;26.10;2048.00;;;;;;4828645;29;20037;-75
2021/03/22 01:55:48;;;;;;;30.63;16.52;;;26.00;2048.00;;;;;;4845028;29;20049;-75
2021/03/22 01:58:13;;;;;;;27.48;18.48;;;26.00;2073.60;;;;;;4845156;29;20045;-75
2021/03/22 02:00:40;;;;;;;27.75;20.15;;;26.00;2073.60;;;;;;4834913;29;20480;-75
2021/03/22 02:03:17;;;;;;;31.95;19.25;;;25.90;2099.20;;;;;;4825515;29;20026;-74
2021/03/22 02:05:46;;;;;;;34.30;20.95;;;25.90;2099.20;;;;;;4844998;29;20506;-74
2021/03/22 02:08:21;;;;;;;33.28;20.25;;;25.90;2124.80;;;;;;4845043;29;20101;-75
2021/03/22 02:10:47;;;;;;;32.17;19.98;;;25.80;2124.80;;;;;;4844329;29;20041;-75
2021/03/22 02:13:33;;;;;;;30.50;18.90;;;25.80;2124.80;;;;;;4825292;29;20049;-74
2021/03/22 02:16:22;;;;;;;32.92;20.80;;;25.70;2150.40;;;;;;4835891;29;20038;-74
2021/03/22 02:19:14;;;;;;;32.17;19.60;;;25.80;2150.40;;;;;;4846412;29;20418;-74
2021/03/22 02:22:15;;;;;;;35.47;19.13;;;25.70;2150.40;;;;;;4824080;29;20045;-74
2021/03/22 02:25:16;;;;;;;26.40;18.58;;;25.70;2176.00;;;;;;4838561;29;20033;-74
2021/03/22 02:28:03;;;;;;;27.45;17.50;;;25.70;2150.40;;;;;;4772069;30;20035;-74
2021/03/22 02:30:56;;;;;;;32.45;18.13;;;25.70;2176.00;;;;;;4787501;30;20133;-74
2021/03/22 02:33:49;;;;;;;30.10;17.90;;;25.70;2150.40;;;;;;4782708;29;20035;-74
2021/03/22 02:36:28;;;;;;;27.77;17.25;;;25.70;2150.40;;;;;;4805290;29;20043;-74
2021/03/22 02:38:59;;;;;;;32.15;19.33;;;25.70;2150.40;;;;;;4792530;29;20023;-74
2021/03/22 02:41:42;;;;;;;29.40;17.98;;;25.70;2150.40;;;;;;4805136;29;20039;-73
2021/03/22 02:44:09;;;;;;;31.38;18.65;;;25.70;2150.40;;;;;;4777526;29;20046;-73
2021/03/22 02:46:37;;;;;;;31.70;19.60;;;25.70;2150.40;;;;;;4777463;30;20490;-73
2021/03/22 02:49:10;;;;;;;29.67;18.73;;;25.70;2150.40;;;;;;4796796;29;20062;-73
2021/03/22 02:52:00;;;;;;;26.85;17.80;;;25.60;2150.40;;;;;;4804815;29;20038;-74
2021/03/22 02:54:58;;;;;;;27.23;17.42;;;25.70;2150.40;;;;;;4805161;29;20034;-74
2021/03/22 02:57:49;;;;;;;27.88;18.98;;;25.70;2150.40;;;;;;4805046;29;20520;-74
2021/03/22 03:00:22;;;;;;;29.38;18.58;;;25.60;2124.80;;;;;;4795415;29;20063;-74
2021/03/22 03:02:49;;;;;;;30.30;18.73;;;25.60;2124.80;;;;;;4854570;29;20086;-74
2021/03/22 03:05:21;;;;;;;29.35;18.88;;;25.70;2124.80;;;;;;4843547;29;20079;-74
2021/03/22 03:07:47;;;;;;;27.20;18.35;;;25.60;2124.80;;;;;;4826801;29;20030;-74
2021/03/22 03:10:16;;;;;;;32.03;19.73;;;25.60;2124.80;;;;;;4851280;29;20029;-75
2021/03/22 03:12:42;;;;;;;31.58;20.20;;;25.60;2150.40;;;;;;4832313;29;20495;-75
2021/03/22 03:15:09;;;;;;;31.58;20.85;;;25.80;2150.40;;;;;;4854890;29;20526;-75
2021/03/22 03:17:35;;;;;;;33.75;20.85;;;25.70;2150.40;;;;;;4856099;29;20030;-75
2021/03/22 03:20:05;;;;;;;31.73;18.42;;;25.70;2150.40;;;;;;4856267;29;20440;-75
2021/03/22 03:22:31;;;;;;;29.88;19.38;;;25.80;2150.40;;;;;;4837868;29;20097;-75
2021/03/22 03:24:57;;;;;;;32.70;19.95;;;25.80;2124.80;;;;;;4844512;29;20022;-75
2021/03/22 03:27:23;;;;;;;35.88;20.23;;;25.80;2124.80;;;;;;4843176;29;20515;-74
2021/03/22 03:29:48;;;;;;;33.47;19.52;;;25.80;2124.80;;;;;;4842779;29;20414;-75
2021/03/22 03:32:18;;;;;;;35.13;20.80;;;25.90;2150.40;;;;;;4826885;29;20041;-75
2021/03/22 03:34:44;;;;;;;23.83;17.35;;;25.90;2150.40;;;;;;4837172;29;20399;-74
2021/03/22 03:37:11;;;;;;;30.33;19.50;;;26.00;2124.80;;;;;;4830919;29;20045;-75
2021/03/22 03:39:36;;;;;;;27.73;17.65;;;26.10;2124.80;;;;;;4843045;29;20376;-74
2021/03/22 03:42:04;;;;;;;30.42;18.15;;;26.10;2124.80;;;;;;4825920;29;20046;-75
2021/03/22 03:44:30;;;;;;;27.98;18.15;;;26.10;2124.80;;;;;;4826335;29;20117;-74
2021/03/22 03:46:56;;;;;;;25.02;16.85;;;26.20;2124.80;;;;;;4842688;29;20162;-74
2021/03/22 03:49:22;;;;;;;31.35;18.20;;;26.20;2124.80;;;;;;4825683;29;20567;-74
2021/03/22 03:51:47;;;;;;;29.17;17.67;;;26.20;2124.80;;;;;;4825802;29;20921;-74
2021/03/22 03:54:13;;;;;;;29.55;18.58;;;26.30;2150.40;;;;;;4826249;29;20042;-74
2021/03/22 03:56:39;;;;;;;28.45;18.10;;;26.30;2150.40;;;;;;4824863;29;20048;-74
2021/03/22 03:59:06;;;;;;;36.97;20.40;;;26.30;2150.40;;;;;;4842194;29;20419;-74
2021/03/22 04:01:33;;;;;;;29.75;19.35;;;26.40;2150.40;;;;;;4826287;29;20034;-74
2021/03/22 04:03:59;;;;;;;30.23;19.45;;;26.40;2150.40;;;;;;4842279;29;20056;-74
2021/03/22 04:06:28;;;;;;;29.92;20.58;;;26.40;2150.40;;;;;;4825866;29;20030;-74
2021/03/22 04:09:00;;;;;;;28.92;20.27;;;26.50;2124.80;;;;;;4842085;29;20033;-74
2021/03/22 04:11:33;;;;;;;28.80;20.02;;;26.50;2124.80;;;;;;4840693;29;20479;-75
2021/03/22 04:13:59;;;;;;;32.40;20.30;;;26.50;2124.80;;;;;;4829164;29;20453;-74
2021/03/22 04:16:28;;;;;;;34.47;20.85;;;26.50;2150.40;;;;;;4815708;29;20038;-75
2021/03/22 04:18:54;;;;;;;35.55;19.38;;;26.50;2150.40;;;;;;4812009;29;20113;-75
2021/03/22 04:21:24;;;;;;;35.42;20.98;;;26.50;2150.40;;;;;;4831895;29;20825;-75
2021/03/22 04:23:50;;;;;;;29.23;18.23;;;26.50;2150.40;;;;;;4808004;29;20079;-75
2021/03/22 04:26:17;;;;;;;32.92;19.23;;;26.50;2150.40;;;;;;4824072;29;20079;-75
2021/03/22 04:28:43;;;;;;;35.70;21.48;;;51.20;2176.00;;;;;;4808154;29;20030;-75
2021/03/22 04:31:14;;;;;;;35.72;20.63;;;26.50;2150.40;;;;;;4825890;29;20096;-75
2021/03/22 04:33:39;;;;;;;31.55;19.90;;;51.20;2176.00;;;;;;4820276;29;20037;-74
2021/03/22 04:36:06;;;;;;;26.52;17.95;;;51.20;2176.00;;;;;;4824016;29;20042;-74
2021/03/22 04:38:32;;;;;;;34.65;17.48;;;51.20;2150.40;;;;;;4823250;29;20598;-74
2021/03/22 04:40:58;;;;;;;30.40;18.00;;;51.20;2176.00;;;;;;4812017;29;20087;-75
2021/03/22 04:43:23;;;;;;;25.60;17.10;;;51.20;2176.00;;;;;;4807055;29;20117;-74
2021/03/22 04:45:49;;;;;;;27.10;16.73;;;51.20;2176.00;;;;;;4807262;29;20072;-74
2021/03/22 04:48:16;;;;;;;29.05;18.25;;;26.50;2176.00;;;;;;4823412;29;20038;-74
2021/03/22 04:50:42;;;;;;;28.88;18.77;;;26.50;2176.00;;;;;;4807946;29;20485;-74
2021/03/22 04:53:08;;;;;;;26.45;17.98;;;26.50;2150.40;;;;;;4823391;29;20034;-75
2021/03/22 04:55:34;;;;;;;27.15;18.33;;;26.50;2176.00;;;;;;4823491;29;20030;-74
2021/03/22 04:58:00;;;;;;;32.13;18.33;;;26.50;2150.40;;;;;;4806985;29;20045;-74
2021/03/22 05:00:31;;;;;;;33.35;20.83;;;51.20;2176.00;;;;;;4823260;29;20034;-74
2021/03/22 05:02:57;;;;;;;29.98;19.95;;;51.20;2176.00;;;;;;4823577;29;20026;-74
2021/03/22 05:05:25;;;;;;;31.65;20.38;;;51.30;2176.00;;;;;;4823249;29;20030;-74
2021/03/22 05:07:51;;;;;;;31.88;21.17;;;51.20;2201.60;;;;;;4807730;29;20087;-75
2021/03/22 05:10:31;;;;;;;31.67;19.60;;;51.20;2201.60;;;;;;4824153;29;20030;-74
2021/03/22 05:12:57;;;;;;;32.15;19.13;;;51.20;2201.60;;;;;;4807393;29;20462;-74
2021/03/22 05:15:23;;;;;;;31.23;19.73;;;51.40;2201.60;;;;;;4823843;29;20034;-74
2021/03/22 05:17:49;;;;;;;32.03;20.48;;;51.50;2176.00;;;;;;4836601;29;20468;-74
2021/03/22 05:20:52;;;;;;;33.75;21.40;;;51.60;2176.00;;;;;;4824732;29;20022;-75
2021/03/22 05:23:27;;;;;;;29.48;18.40;;;51.60;2176.00;;;;;;4750891;30;20094;-74
2021/03/22 05:25:55;;;;;;;31.95;19.70;;;51.70;2176.00;;;;;;4751374;30;20051;-74
2021/03/22 05:28:22;;;;;;;28.30;20.50;;;51.70;2176.00;;;;;;4750388;30;20043;-75
2021/03/22 05:30:48;;;;;;;34.22;21.48;;;51.80;2176.00;;;;;;4734794;30;20048;-75
2021/03/22 05:33:16;;;;;;;37.30;23.05;;;51.90;2176.00;;;;;;4749392;30;20036;-74
2021/03/22 05:35:45;;;;;;;30.90;20.35;;;52.00;2176.00;;;;;;4748970;30;20039;-74
2021/03/22 05:38:11;;;;;;;36.35;23.65;;;51.90;2176.00;;;;;;4739478;30;20128;-74
2021/03/22 05:40:50;;;;;;;42.47;26.30;;;52.00;2176.00;;;;;;4743647;30;20111;-74
2021/03/22 05:43:37;;;;;;;51.92;27.70;;;52.00;2176.00;;;;;;4745879;30;20059;-74
2021/03/22 05:46:22;;;;;;;52.17;31.40;;;52.00;2201.60;;;;;;4749149;30;20457;-74
2021/03/22 05:48:59;;;;;;;54.35;32.17;;;52.10;2201.60;;;;;;4734805;30;20387;-75
2021/03/22 05:51:49;;;;;;;61.10;37.53;;;76.80;2201.60;;;;;;4742884;30;20047;-75
2021/03/22 05:54:23;;;;;;;62.42;35.40;;;76.80;2201.60;;;;;;4748613;30;20036;-75
2021/03/22 05:57:10;;;;;;;51.95;32.60;;;76.80;2201.60;;;;;;4767007;29;20192;-75
2021/03/22 06:00:05;;;;;;;46.55;28.48;;;76.90;2201.60;;;;;;4821333;29;20039;-75
2021/03/22 06:02:45;;;;;;;67.55;36.30;;;76.90;2201.60;;;;;;4806397;29;20034;-75
2021/03/22 06:05:33;;;;;;;47.53;28.85;;;76.90;2201.60;;;;;;4797127;29;20022;-74
2021/03/22 06:08:19;;;;;;;45.13;26.38;;;76.90;2201.60;;;;;;4823231;29;20030;-75
2021/03/22 06:10:50;;;;;;;56.22;33.90;;;76.90;2227.20;;;;;;4806968;29;20047;-76
2021/03/22 06:13:19;;;;;;;43.60;27.15;;;76.90;2227.20;;;;;;4838131;29;20085;-75
2021/03/22 06:16:17;;;;;;;58.35;32.53;;;77.00;2227.20;;;;;;4841953;29;20051;-75
2021/03/22 06:19:02;;;;;;;50.78;33.00;;;77.00;2227.20;;;;;;4768694;30;20042;-75
2021/03/22 06:21:31;;;;;;;49.40;30.77;;;77.00;2227.20;;;;;;4770675;30;20510;-75
2021/03/22 06:23:57;;;;;;;67.03;38.17;;;76.90;2227.20;;;;;;4756056;30;20036;-76
2021/03/22 06:26:50;;;;;;;62.92;40.05;;;76.90;2227.20;;;;;;4755977;30;20394;-75
2021/03/22 06:29:24;;;;;;;55.50;35.63;;;76.90;2227.20;;;;;;4763581;30;20563;-75
2021/03/22 06:31:53;;;;;;;51.60;31.52;;;76.80;2227.20;;;;;;4767391;30;20084;-75
2021/03/22 06:34:48;;;;;;;56.78;34.63;;;76.80;2227.20;;;;;;4770237;30;20555;-75
2021/03/22 06:37:16;;;;;;;52.97;32.40;;;52.10;2227.20;;;;;;4770512;30;20537;-75
2021/03/22 06:39:43;;;;;;;51.50;35.15;;;52.10;2227.20;;;;;;4748214;30;20043;-75
2021/03/22 06:42:23;;;;;;;52.17;32.83;;;52.10;2227.20;;;;;;4751700;30;20048;-75
2021/03/22 06:44:51;;;;;;;57.88;36.53;;;76.80;2227.20;;;;;;4768223;30;20520;-74
2021/03/22 06:47:26;;;;;;;61.67;38.83;;;52.10;2227.20;;;;;;4770589;30;20431;-75
2021/03/22 06:50:11;;;;;;;68.00;38.00;;;52.10;2227.20;;;;;;4769887;30;20035;-78
2021/03/22 06:52:39;;;;;;;61.92;37.97;;;51.90;2227.20;;;;;;4768443;30;20066;-75
2021/03/22 06:55:23;;;;;;;53.97;33.83;;;51.90;2227.20;;;;;;4768172;29;20052;-75
2021/03/22 06:57:51;;;;;;;55.95;36.47;;;51.70;2227.20;;;;;;4835947;29;20057;-74
2021/03/22 07:00:23;;;;;;;63.15;36.92;;;51.80;2227.20;;;;;;4837037;29;20027;-75
2021/03/22 07:02:58;;;;;;;84.55;44.95;;;51.70;2227.20;;;;;;4840783;29;20088;-75
2021/03/22 07:05:24;;;;;;;70.13;42.78;;;51.80;2227.20;;;;;;4838868;29;20053;-76
2021/03/22 07:08:01;;;;;;;65.88;39.85;;;51.80;2227.20;;;;;;4824498;29;20057;-76
2021/03/22 07:10:32;;;;;;;63.10;37.55;;;51.80;2227.20;;;;;;4839975;29;20590;-76
2021/03/22 07:13:08;;;;;;;57.05;35.85;;;51.80;2227.20;;;;;;4834069;29;20046;-76
2021/03/22 07:15:36;;;;;;;50.67;31.38;;;51.80;2227.20;;;;;;4838059;29;20374;-76
2021/03/22 07:18:22;;;;;;;44.50;29.77;;;51.90;2227.20;;;;;;4818181;29;20026;-76
2021/03/22 07:21:00;;;;;;;46.88;32.03;;;51.80;2227.20;;;;;;4819135;29;20054;-75
2021/03/22 07:23:26;;;;;;;45.95;31.17;;;51.90;2227.20;;;;;;4819344;29;20028;-75
2021/03/22 07:26:20;;;;;;;52.47;30.92;;;51.90;2227.20;;;;;;4835994;29;20033;-75
2021/03/22 07:29:23;;;;;;;55.17;33.72;;;51.80;2227.20;;;;;;4767764;30;20039;-76
2021/03/22 07:32:26;;;;;;;53.00;34.33;;;51.90;2227.20;;;;;;4765857;30;20028;-75
2021/03/22 07:35:19;;;;;;;49.10;33.10;;;51.80;2227.20;;;;;;4766839;30;20425;-75
2021/03/22 07:38:18;;;;;;;52.58;32.67;;;51.90;2227.20;;;;;;4767261;30;20039;-75
2021/03/22 07:40:53;;;;;;;54.22;34.80;;;51.90;2227.20;;;;;;4767071;30;20120;-74
2021/03/22 07:43:43;;;;;;;55.38;35.33;;;76.80;2227.20;;;;;;4761076;30;20044;-74
2021/03/22 07:46:23;;;;;;;52.70;34.10;;;76.90;2227.20;;;;;;4765402;30;20050;-74
2021/03/22 07:49:16;;;;;;;57.88;38.13;;;76.90;2227.20;;;;;;4764765;30;20082;-74
2021/03/22 07:52:05;;;;;;;61.30;37.10;;;77.00;2227.20;;;;;;4765521;30;20039;-74
2021/03/22 07:54:34;;;;;;;52.47;35.67;;;77.10;2227.20;;;;;;4765900;30;20040;-74
2021/03/22 07:57:07;;;;;;;59.17;37.22;;;77.20;2227.20;;;;;;4766389;30;20513;-74
2021/03/22 07:59:42;;;;;;;62.13;41.95;;;77.10;2227.20;;;;;;4750473;30;20127;-74
2021/03/22 08:02:37;;;;;;;56.47;36.75;;;77.00;2227.20;;;;;;4767470;30;20506;-74
2021/03/22 08:05:30;;;;;;;55.88;37.17;;;77.00;2227.20;;;;;;4782388;29;20042;-74
2021/03/22 08:08:01;;;;;;;69.20;41.17;;;76.90;2227.20;;;;;;4816911;29;20106;-74
2021/03/22 08:10:40;;;;;;;55.65;37.35;;;77.00;2227.20;;;;;;4818793;29;20034;-75
2021/03/22 08:13:34;;;;;;;54.45;36.30;;;77.00;2227.20;;;;;;4823173;29;20493;-75
2021/03/22 08:16:23;;;;;;;52.20;35.38;;;77.00;2227.20;;;;;;4832154;29;20045;-74
2021/03/22 08:18:51;;;;;;;58.15;38.22;;;77.00;2227.20;;;;;;4818255;29;20615;-74
2021/03/22 08:21:33;;;;;;;58.38;40.90;;;77.00;2227.20;;;;;;4833903;29;20495;-74
2021/03/22 08:24:10;;;;;;;67.63;40.30;;;77.20;2227.20;;;;;;4833955;29;20462;-74
2021/03/22 08:26:44;;;;;;;53.22;34.15;;;77.40;2227.20;;;;;;4821626;29;20070;-74
2021/03/22 08:29:30;;;;;;;49.72;34.85;;;77.40;2227.20;;;;;;4817827;29;20094;-74
2021/03/22 08:32:24;;;;;;;51.78;35.05;;;77.60;2227.20;;;;;;4831955;29;20098;-74
2021/03/22 08:35:02;;;;;;;45.55;31.38;;;102.50;2227.20;;;;;;4833998;29;20030;-74
2021/03/22 08:37:37;;;;;;;50.67;33.97;;;102.60;2227.20;;;;;;4833781;29;20030;-75
2021/03/22 08:40:25;;;;;;;52.10;35.90;;;102.50;2227.20;;;;;;4834975;29;20053;-74
2021/03/22 08:42:56;;;;;;;53.78;34.42;;;102.60;2227.20;;;;;;4818999;29;20058;-74
2021/03/22 08:45:43;;;;;;;50.55;31.35;;;102.80;2227.20;;;;;;4831506;29;20033;-74
2021/03/22 08:48:25;;;;;;;51.53;34.88;;;103.00;2227.20;;;;;;4835153;29;20782;-74
2021/03/22 08:50:52;;;;;;;47.13;30.75;;;103.30;2227.20;;;;;;4825211;29;20022;-74
2021/03/22 08:53:20;;;;;;;45.30;32.22;;;128.10;2252.80;;;;;;4828004;29;20109;-74
2021/03/22 08:55:51;;;;;;;47.30;31.35;;;128.20;2252.80;;;;;;4837668;29;20025;-74
2021/03/22 08:58:32;;;;;;;62.00;41.38;;;128.30;2252.80;;;;;;4837921;29;20109;-74
2021/03/22 09:01:18;;;;;;;56.30;37.05;;;128.30;2252.80;;;;;;4817461;29;20075;-74
2021/03/22 09:03:47;;;;;;;39.55;29.20;;;128.50;2252.80;;;;;;4819882;29;20041;-74
2021/03/22 09:06:17;;;;;;;44.58;28.73;;;128.60;2252.80;;;;;;4813336;29;20155;-74
2021/03/22 09:08:53;;;;;;;43.45;28.88;;;128.60;2252.80;;;;;;4814458;29;20039;-74
2021/03/22 09:11:26;;;;;;;53.45;34.90;;;128.80;2252.80;;;;;;4816048;29;20121;-74
2021/03/22 09:14:17;;;;;;;39.90;29.15;;;128.70;2252.80;;;;;;4830280;29;20042;-74
2021/03/22 09:16:48;;;;;;;40.85;29.08;;;128.90;2252.80;;;;;;4836051;29;20033;-74
2021/03/22 09:19:14;;;;;;;41.30;28.85;;;128.80;2252.80;;;;;;4832390;29;20090;-73
2021/03/22 09:21:41;;;;;;;44.38;28.60;;;153.60;2252.80;;;;;;4819533;29;20030;-74
2021/03/22 09:24:37;;;;;;;51.75;35.05;;;153.60;2252.80;;;;;;4832732;29;20519;-74
2021/03/22 09:27:24;;;;;;;36.70;27.60;;;128.80;2252.80;;;;;;4836793;29;20026;-74
2021/03/22 09:30:02;;;;;;;41.78;28.98;;;128.70;2252.80;;;;;;4833213;29;20510;-74
2021/03/22 09:32:34;;;;;;;44.75;31.08;;;128.60;2252.80;;;;;;4831414;29;20033;-73
2021/03/22 09:35:13;;;;;;;59.08;36.05;;;128.50;2252.80;;;;;;4833366;29;20057;-74
2021/03/22 09:37:44;;;;;;;53.50;34.85;;;128.50;2252.80;;;;;;4822318;29;20055;-75
2021/03/22 09:40:21;;;;;;;50.25;34.13;;;128.50;2252.80;;;;;;4835366;29;20106;-75
2021/03/22 09:43:09;;;;;;;47.42;32.10;;;128.40;2252.80;;;;;;4829896;29;20109;-74
2021/03/22 09:45:36;;;;;;;48.20;33.45;;;128.10;2252.80;;;;;;4814951;29;20110;-76
2021/03/22 09:48:14;;;;;;;44.83;29.40;;;128.10;2252.80;;;;;;4837833;29;20033;-75
2021/03/22 09:50:40;;;;;;;33.17;24.00;;;128.00;2252.80;;;;;;4816056;29;20114;-75
2021/03/22 09:53:27;;;;;;;50.53;32.95;;;103.30;2227.20;;;;;;4833253;29;20052;-74
2021/03/22 09:55:53;;;;;;;42.65;29.27;;;103.30;2227.20;;;;;;4837188;29;20036;-74
2021/03/22 09:58:48;;;;;;;49.50;34.72;;;103.30;2227.20;;;;;;4835221;29;20041;-74
2021/03/22 10:01:35;;;;;;;45.63;32.42;;;103.30;2227.20;;;;;;4762461;30;20052;-74
2021/03/22 10:04:30;;;;;;;46.35;33.67;;;103.30;2227.20;;;;;;4765900;30;20567;-74
2021/03/22 10:07:09;;;;;;;42.88;29.50;;;103.30;2227.20;;;;;;4763594;30;20079;-75
2021/03/22 10:09:46;;;;;;;56.47;32.45;;;128.00;2252.80;;;;;;4761664;30;20028;-74
2021/03/22 10:12:19;;;;;;;44.72;28.85;;;103.30;2227.20;;;;;;4765096;30;20052;-75
2021/03/22 10:15:17;;;;;;;43.55;28.67;;;103.30;2227.20;;;;;;4764456;30;20052;-74
2021/03/22 10:17:58;;;;;;;45.65;30.15;;;103.20;2227.20;;;;;;4751336;30;20051;-75
2021/03/22 10:20:42;;;;;;;39.10;27.42;;;103.20;2227.20;;;;;;4748720;30;20784;-74
2021/03/22 10:23:20;;;;;;;38.63;27.33;;;103.20;2227.20;;;;;;4750342;30;20032;-74
2021/03/22 10:25:47;;;;;;;41.40;27.35;;;103.10;2227.20;;;;;;4751318;30;20041;-75
2021/03/22 10:28:23;;;;;;;44.42;28.90;;;103.10;2227.20;;;;;;4751466;30;20036;-75
2021/03/22 10:31:13;;;;;;;39.95;26.23;;;103.10;2227.20;;;;;;4751388;30;20525;-74
2021/03/22 10:33:47;;;;;;;39.35;25.23;;;103.00;2227.20;;;;;;4751096;30;20533;-74
2021/03/22 10:36:24;;;;;;;41.67;28.73;;;103.00;2227.20;;;;;;4749093;30;20044;-75
2021/03/22 10:38:52;;;;;;;39.20;27.52;;;103.10;2227.20;;;;;;4778003;29;20048;-74
2021/03/22 10:41:31;;;;;;;40.20;27.70;;;103.10;2227.20;;;;;;4783805;30;20048;-75
2021/03/22 10:44:02;;;;;;;41.88;27.98;;;103.00;2227.20;;;;;;4761047;30;20106;-74
2021/03/22 10:46:31;;;;;;;45.42;27.63;;;103.00;2227.20;;;;;;4779848;30;20830;-75
2021/03/22 10:49:24;;;;;;;48.75;29.85;;;103.00;2227.20;;;;;;4780785;30;20074;-74
2021/03/22 10:51:52;;;;;;;47.60;27.25;;;103.10;2227.20;;;;;;4770632;30;20040;-74
2021/03/22 10:54:21;;;;;;;50.78;32.60;;;103.10;2227.20;;;;;;4808509;29;20467;-74
2021/03/22 10:56:53;;;;;;;46.25;32.97;;;103.20;2227.20;;;;;;4826419;29;20630;-75
2021/03/22 10:59:31;;;;;;;43.25;30.98;;;128.00;2252.80;;;;;;4816196;29;20049;-74
2021/03/22 11:02:00;;;;;;;43.60;28.55;;;103.30;2227.20;;;;;;4832277;29;20030;-74
2021/03/22 11:04:33;;;;;;;46.60;29.55;;;103.30;2227.20;;;;;;4831758;29;20033;-76
2021/03/22 11:06:59;;;;;;;47.72;29.30;;;103.30;2227.20;;;;;;4823920;29;20037;-76
2021/03/22 11:09:31;;;;;;;39.75;28.70;;;128.00;2252.80;;;;;;4831249;29;20444;-75
2021/03/22 11:12:00;;;;;;;38.17;26.70;;;128.10;2252.80;;;;;;4813881;29;20516;-75
2021/03/22 11:14:30;;;;;;;39.25;27.27;;;128.40;2252.80;;;;;;4832326;29;20121;-74
2021/03/22 11:17:01;;;;;;;40.20;27.15;;;128.50;2252.80;;;;;;4817589;29;20042;-74
2021/03/22 11:19:35;;;;;;;39.15;24.13;;;128.70;2252.80;;;;;;4835762;29;20030;-74
2021/03/22 11:22:01;;;;;;;39.45;26.08;;;128.80;2252.80;;;;;;4829458;29;20046;-74
2021/03/22 11:24:41;;;;;;;40.00;27.33;;;128.80;2252.80;;;;;;4820337;29;20026;-75
2021/03/22 11:27:09;;;;;;;37.75;25.08;;;128.80;2252.80;;;;;;4815848;29;20090;-75
2021/03/22 11:29:48;;;;;;;36.75;24.88;;;128.80;2252.80;;;;;;4829273;29;20033;-74
2021/03/22 11:32:21;;;;;;;36.15;27.02;;;128.60;2252.80;;;;;;4815211;29;20053;-73
2021/03/22 11:34:47;;;;;;;37.72;26.52;;;128.60;2252.80;;;;;;4820878;29;20116;-75
2021/03/22 11:37:21;;;;;;;35.33;24.42;;;128.50;2252.80;;;;;;4834302;29;20021;-75
2021/03/22 11:40:06;;;;;;;36.00;25.92;;;128.40;2252.80;;;;;;4822702;29;20045;-74
2021/03/22 11:42:36;;;;;;;36.80;25.35;;;128.20;2252.80;;;;;;4840664;29;20040;-74
2021/03/22 11:45:36;;;;;;;36.30;24.15;;;128.20;2252.80;;;;;;4821200;29;20041;-75
2021/03/22 11:48:04;;;;;;;42.67;27.35;;;128.20;2252.80;;;;;;4835297;29;20026;-74
2021/03/22 11:50:32;;;;;;;40.25;26.95;;;128.10;2252.80;;;;;;4827006;29;20053;-74
2021/03/22 11:53:07;;;;;;;41.85;28.65;;;128.00;2252.80;;;;;;4835871;29;20041;-74
2021/03/22 11:55:54;;;;;;;42.63;28.02;;;128.00;2252.80;;;;;;4822520;29;20035;-75
2021/03/22 11:58:22;;;;;;;;;;;128.00;2252.80;;;;;;4836178;29;20023;-75
2021/03/22 12:00:48;;;;;;;36.15;23.42;;;128.10;2252.80;;;;;;4836940;29;19956;-74
2021/03/22 12:03:30;;;;;;;40.22;26.38;;;128.00;2252.80;;;;;;4833592;29;20508;-74
2021/03/22 12:06:10;;;;;;;48.03;29.55;;;128.10;2252.80;;;;;;4832151;29;20057;-74
2021/03/22 12:08:38;;;;;;;45.38;29.70;;;128.20;2252.80;;;;;;4833434;29;20031;-75
2021/03/22 12:11:25;;;;;;;44.92;26.88;;;128.20;2252.80;;;;;;4830845;29;20049;-74
2021/03/22 12:13:53;;;;;;;33.70;22.77;;;128.10;2252.80;;;;;;4831333;29;20563;-73
2021/03/22 12:16:25;;;;;;;35.15;24.33;;;128.20;2252.80;;;;;;4834222;29;20061;-74
2021/03/22 12:18:56;;;;;;;34.78;24.33;;;128.20;2252.80;;;;;;4834797;29;20057;-74
2021/03/22 12:21:23;;;;;;;38.78;25.13;;;128.10;2252.80;;;;;;4833692;29;20457;-73
2021/03/22 12:23:49;;;;;;;34.38;24.83;;;128.20;2252.80;;;;;;4833425;29;20463;-76
2021/03/22 12:26:19;;;;;;;35.92;25.77;;;128.20;2252.80;;;;;;4834307;29;20475;-73
2021/03/22 12:29:00;;;;;;;34.70;23.75;;;128.20;2252.80;;;;;;4832369;29;20022;-74
2021/03/22 12:31:47;;;;;;;34.00;23.95;;;128.20;2252.80;;;;;;4830192;29;20113;-73
2021/03/22 12:34:17;;;;;;;37.40;24.73;;;128.20;2252.80;;;;;;4818739;29;20048;-73
2021/03/22 12:36:45;;;;;;;33.47;24.92;;;128.30;2252.80;;;;;;4822138;29;20038;-73
2021/03/22 12:39:30;;;;;;;37.20;26.83;;;128.40;2252.80;;;;;;4830689;29;20117;-74